createdAt,value
2022-09-23T00:00:59.963Z,14.42
2022-09-23T00:03:37.332Z,13.78
2022-09-23T00:06:10.733Z,14.08
2022-09-23T00:08:41.847Z,13.93
2022-09-23T00:11:13.376Z,14.64
2022-09-23T00:13:44.897Z,14.28
2022-09-23T00:16:16.298Z,14.64
2022-09-23T00:18:46.319Z,14.62
2022-09-23T00:21:16.359Z,14.63
2022-09-23T00:23:46.324Z,14.34
2022-09-23T00:26:17.509Z,14.92
2022-09-23T00:28:48.338Z,15.01
2022-09-23T00:31:19.866Z,15.39
2022-09-23T00:33:54.100Z,14.99
2022-09-23T00:36:24.891Z,15.07
2022-09-23T00:38:55.431Z,14.48
2022-09-23T00:41:25.974Z,14.15
2022-09-23T00:43:57.305Z,14.79
2022-09-23T00:46:31.103Z,15.42
2022-09-23T00:49:04.656Z,14.72
2022-09-23T00:51:39.481Z,15.34
2022-09-23T00:54:10.333Z,14.66
2022-09-23T00:56:41.248Z,14.48
2022-09-23T00:59:11.780Z,14.89
2022-09-23T01:01:41.943Z,14.20
2022-09-23T01:04:11.970Z,14.32
2022-09-23T01:06:42.004Z,14.26
2022-09-23T01:09:12.102Z,14.50
2022-09-23T01:11:51.230Z,14.39
2022-09-23T01:14:38.681Z,14.53
2022-09-23T01:17:11.874Z,13.94
2022-09-23T01:20:02.382Z,13.68
2022-09-23T01:22:39.938Z,13.88
2022-09-23T01:25:26.524Z,13.76
2022-09-23T01:28:18.336Z,13.64
2022-09-23T01:30:57.881Z,13.27
2022-09-23T01:33:35.920Z,12.91
2022-09-23T01:36:11.222Z,12.90
2022-09-23T01:38:51.696Z,12.96
2022-09-23T01:41:38.820Z,13.00
2022-09-23T01:44:12.360Z,12.54
2022-09-23T01:46:50.148Z,12.77
2022-09-23T01:49:24.115Z,12.74
2022-09-23T01:51:59.022Z,12.75
2022-09-23T01:54:34.913Z,12.81
2022-09-23T01:57:09.195Z,13.41
2022-09-23T01:59:41.165Z,12.36
2022-09-23T02:02:16.623Z,13.11
2022-09-23T02:04:54.055Z,12.71
2022-09-23T02:07:29.115Z,12.40
2022-09-23T02:10:04.557Z,12.42
2022-09-23T02:12:38.813Z,13.00
2022-09-23T02:15:13.434Z,12.16
2022-09-23T02:17:46.846Z,12.38
2022-09-23T02:20:21.935Z,13.02
2022-09-23T02:22:57.294Z,12.77
2022-09-23T02:25:34.069Z,12.83
2022-09-23T02:28:10.445Z,13.16
2022-09-23T02:30:46.664Z,12.94
2022-09-23T02:33:21.935Z,13.26
2022-09-23T02:35:55.571Z,13.33
2022-09-23T02:38:31.440Z,13.60
2022-09-23T02:41:06.565Z,13.06
2022-09-23T02:43:44.535Z,13.44
2022-09-23T02:46:14.770Z,13.31
2022-09-23T02:48:50.381Z,12.70
2022-09-23T02:51:20.534Z,13.15
2022-09-23T02:53:50.557Z,13.44
2022-09-23T02:56:22.099Z,13.94
2022-09-23T02:58:54.142Z,13.29
2022-09-23T03:01:35.025Z,14.12
2022-09-23T03:04:13.181Z,13.57
2022-09-23T03:06:52.355Z,14.14
2022-09-23T03:09:26.700Z,13.83
2022-09-23T03:12:07.648Z,13.47
2022-09-23T03:14:44.517Z,12.89
2022-09-23T03:17:22.127Z,13.09
2022-09-23T03:19:57.605Z,13.31
2022-09-23T03:22:31.576Z,13.22
2022-09-23T03:25:07.245Z,12.90
2022-09-23T03:27:39.099Z,12.47
2022-09-23T03:30:10.816Z,12.12
2022-09-23T03:32:45.085Z,12.50
2022-09-23T03:35:15.850Z,12.53
2022-09-23T03:37:50.156Z,12.18
2022-09-23T03:40:24.981Z,12.23
2022-09-23T03:42:57.573Z,13.16
2022-09-23T03:45:30.994Z,12.81
2022-09-23T03:48:01.349Z,12.25
2022-09-23T03:50:31.410Z,13.27
2022-09-23T03:53:01.519Z,12.50
2022-09-23T03:55:32.265Z,13.42
2022-09-23T03:58:02.462Z,12.88
2022-09-23T04:00:32.529Z,13.00
2022-09-23T04:03:02.536Z,13.14
2022-09-23T04:05:32.705Z,12.44
2022-09-23T04:08:03.246Z,12.45
2022-09-23T04:10:33.248Z,12.78
2022-09-23T04:13:03.392Z,12.27
2022-09-23T04:15:33.349Z,12.91
2022-09-23T04:18:03.368Z,12.72
2022-09-23T04:20:33.332Z,12.52
2022-09-23T04:23:03.292Z,12.30
2022-09-23T04:25:33.418Z,11.64
2022-09-23T04:28:03.549Z,11.76
2022-09-23T04:30:33.476Z,11.80
2022-09-23T04:33:04.440Z,12.35
2022-09-23T04:35:39.354Z,11.75
2022-09-23T04:38:11.911Z,13.56
2022-09-23T04:40:41.950Z,15.15
2022-09-23T04:43:13.705Z,14.44
2022-09-23T04:45:45.395Z,13.80
2022-09-23T04:48:18.160Z,13.14
2022-09-23T04:50:48.942Z,13.47
2022-09-23T04:53:19.240Z,13.45
2022-09-23T04:55:52.107Z,13.83
2022-09-23T04:58:23.066Z,12.86
2022-09-23T05:00:53.158Z,14.05
2022-09-23T05:03:23.806Z,14.74
2022-09-23T05:05:54.656Z,14.50
2022-09-23T05:08:24.653Z,14.88
2022-09-23T05:10:59.546Z,15.25
2022-09-23T05:13:29.773Z,15.45
2022-09-23T05:16:01.277Z,14.85
2022-09-23T05:18:33.116Z,14.83
2022-09-23T05:21:03.642Z,14.84
2022-09-23T05:23:33.746Z,14.40
2022-09-23T05:26:05.567Z,14.82
2022-09-23T05:28:37.532Z,14.90
2022-09-23T05:31:09.922Z,14.81
2022-09-23T05:33:40.061Z,14.36
2022-09-23T05:36:11.092Z,14.36
2022-09-23T05:38:42.348Z,14.33
2022-09-23T05:41:13.993Z,15.27
2022-09-23T05:43:44.404Z,14.69
2022-09-23T05:46:15.885Z,23.10
2022-09-23T05:48:47.316Z,41.75
2022-09-23T05:51:18.990Z,21.09
2022-09-23T05:53:50.132Z,16.68
2022-09-23T05:56:21.586Z,18.24
2022-09-23T05:58:52.906Z,15.65
2022-09-23T06:01:24.903Z,15.41
2022-09-23T06:03:55.908Z,15.35
2022-09-23T06:06:31.197Z,14.59
2022-09-23T06:09:01.955Z,14.39
2022-09-23T06:11:32.885Z,14.36
2022-09-23T06:14:03.672Z,14.53
2022-09-23T06:16:35.555Z,14.40
2022-09-23T06:19:07.039Z,14.38
2022-09-23T06:21:38.626Z,14.16
2022-09-23T06:24:09.813Z,14.49
2022-09-23T06:26:40.146Z,14.18
2022-09-23T06:29:11.931Z,13.82
2022-09-23T06:31:43.521Z,14.33
2022-09-23T06:34:14.961Z,14.03
2022-09-23T06:36:46.686Z,13.10
2022-09-23T06:39:16.913Z,14.36
2022-09-23T06:41:46.908Z,14.89
2022-09-23T06:44:17.417Z,13.98
2022-09-23T06:46:47.520Z,13.74
2022-09-23T06:49:17.523Z,14.13
2022-09-23T06:51:47.497Z,13.83
2022-09-23T06:54:17.540Z,14.37
2022-09-23T06:56:48.523Z,12.50
2022-09-23T06:59:18.547Z,11.69
2022-09-23T07:01:50.664Z,12.87
2022-09-23T07:04:21.113Z,12.65
2022-09-23T07:06:51.108Z,11.82
2022-09-23T07:09:21.283Z,10.68
2022-09-23T07:11:51.256Z,10.23
2022-09-23T07:14:21.781Z,11.10
2022-09-23T07:16:53.306Z,12.12
2022-09-23T07:19:23.401Z,10.56
2022-09-23T07:21:53.964Z,10.43
2022-09-23T07:24:24.218Z,11.08
2022-09-23T07:26:55.141Z,21.39
2022-09-23T07:29:25.191Z,11.52
2022-09-23T07:32:03.639Z,10.69
2022-09-23T07:34:39.472Z,10.71
2022-09-23T07:37:10.420Z,11.33
2022-09-23T07:39:41.962Z,11.89
2022-09-23T07:42:13.359Z,10.94
2022-09-23T07:44:47.856Z,11.31
2022-09-23T07:47:17.852Z,11.50
2022-09-23T07:49:47.993Z,10.13
2022-09-23T07:52:20.257Z,8.73
2022-09-23T07:54:50.348Z,10.67
2022-09-23T07:57:20.465Z,9.15
2022-09-23T07:59:50.608Z,8.11
2022-09-23T08:02:20.697Z,7.56
2022-09-23T08:04:50.980Z,8.27
2022-09-23T08:07:21.102Z,7.75
2022-09-23T08:09:51.255Z,9.56
2022-09-23T08:12:21.276Z,8.74
2022-09-23T08:14:51.229Z,6.77
2022-09-23T08:17:21.291Z,7.54
2022-09-23T08:19:51.361Z,7.26
2022-09-23T08:22:21.331Z,13.23
2022-09-23T08:24:53.696Z,17.01
2022-09-23T08:27:25.236Z,6.42
2022-09-23T08:29:55.251Z,7.00
2022-09-23T08:32:25.336Z,6.14
2022-09-23T08:34:55.291Z,6.69
2022-09-23T08:37:25.336Z,7.23
2022-09-23T08:39:55.572Z,7.06
2022-09-23T08:42:32.351Z,7.24
2022-09-23T08:45:04.534Z,7.26
2022-09-23T08:47:43.740Z,7.61
2022-09-23T08:50:18.061Z,7.26
2022-09-23T08:52:52.230Z,7.06
2022-09-23T08:55:28.597Z,6.63
2022-09-23T08:58:24.361Z,6.80
2022-09-23T09:01:01.783Z,5.42
2022-09-23T09:03:36.119Z,5.29
2022-09-23T09:06:06.565Z,9.22
2022-09-23T09:08:39.509Z,9.50
2022-09-23T09:11:13.441Z,3.39
2022-09-23T09:13:49.515Z,2.88
2022-09-23T09:17:01.393Z,3.65
2022-09-23T09:19:47.332Z,2.45
2022-09-23T09:22:21.327Z,1.83
2022-09-23T09:24:51.999Z,2.37
2022-09-23T09:27:25.389Z,1.48
2022-09-23T09:29:56.539Z,1.78
2022-09-23T09:32:35.132Z,1.79
2022-09-23T09:35:10.674Z,1.63
2022-09-23T09:37:47.013Z,1.62
2022-09-23T09:40:18.075Z,2.24
2022-09-23T09:42:50.659Z,1.71
2022-09-23T09:45:26.955Z,3.06
2022-09-23T09:48:03.501Z,9.57
2022-09-23T09:50:44.881Z,1.92
2022-09-23T09:53:25.927Z,3.08
2022-09-23T09:56:04.671Z,2.27
2022-09-23T09:58:41.693Z,2.18
2022-09-23T10:01:19.305Z,2.70
2022-09-23T10:03:51.356Z,2.92
2022-09-23T10:06:24.736Z,2.27
2022-09-23T10:09:15.036Z,2.07
2022-09-23T10:12:03.716Z,2.54
2022-09-23T10:14:33.773Z,2.42
2022-09-23T10:17:05.847Z,1.96
2022-09-23T10:19:39.400Z,2.29
2022-09-23T10:22:18.671Z,2.38
2022-09-23T10:24:52.729Z,2.43
2022-09-23T10:27:31.336Z,3.71
2022-09-23T10:30:04.485Z,2.77
2022-09-23T10:32:37.538Z,2.66
2022-09-23T10:35:15.626Z,2.65
2022-09-23T10:37:48.479Z,2.16
2022-09-23T10:40:45.682Z,2.10
2022-09-23T10:43:44.240Z,2.21
2022-09-23T10:46:36.116Z,3.42
2022-09-23T10:49:19.663Z,5.01
2022-09-23T10:51:57.950Z,2.76
2022-09-23T10:54:37.845Z,2.42
2022-09-23T10:57:29.937Z,3.16
2022-09-23T11:00:05.237Z,2.72
2022-09-23T11:02:50.815Z,2.92
2022-09-23T11:05:28.396Z,3.67
2022-09-23T11:08:05.441Z,3.04
2022-09-23T11:10:55.857Z,2.70
2022-09-23T11:13:38.159Z,2.26
2022-09-23T11:16:15.291Z,2.14
2022-09-23T11:19:06.160Z,1.89
2022-09-23T11:21:51.928Z,2.17
2022-09-23T11:24:36.061Z,1.81
2022-09-23T11:27:13.694Z,4.75
2022-09-23T11:29:58.845Z,2.69
2022-09-23T11:32:40.555Z,2.72
2022-09-23T11:35:17.957Z,2.51
2022-09-23T11:37:53.064Z,2.23
2022-09-23T11:40:30.219Z,3.30
2022-09-23T11:43:04.236Z,4.75
2022-09-23T11:45:37.806Z,2.51
2022-09-23T11:48:15.678Z,2.73
2022-09-23T11:50:48.980Z,2.08
2022-09-23T11:53:24.148Z,2.09
2022-09-23T11:55:58.772Z,1.91
2022-09-23T11:58:33.895Z,1.76
2022-09-23T12:01:08.774Z,1.79
2022-09-23T12:03:46.318Z,2.13
2022-09-23T12:06:21.004Z,2.70
2022-09-23T12:08:57.686Z,3.23
2022-09-23T12:11:36.322Z,1.90
2022-09-23T12:14:15.643Z,2.03
2022-09-23T12:17:08.371Z,1.92
2022-09-23T12:19:51.778Z,1.61
2022-09-23T12:22:33.125Z,2.16
2022-09-23T12:25:14.632Z,2.24
2022-09-23T12:27:48.147Z,2.67
2022-09-23T12:30:20.510Z,2.79
2022-09-23T12:32:50.987Z,3.16
2022-09-23T12:35:24.535Z,2.38
2022-09-23T12:37:55.726Z,2.53
2022-09-23T12:40:31.400Z,2.13
2022-09-23T12:43:02.429Z,2.60
2022-09-23T12:45:41.322Z,3.25
2022-09-23T12:48:45.223Z,1.86
2022-09-23T12:51:18.638Z,2.45
2022-09-23T12:54:16.783Z,2.05
2022-09-23T12:57:00.277Z,1.77
2022-09-23T12:59:32.247Z,2.02
2022-09-23T13:02:24.330Z,3.10
2022-09-23T13:05:15.908Z,1.48
2022-09-23T13:07:48.687Z,1.58
2022-09-23T13:10:24.938Z,2.30
2022-09-23T13:12:56.891Z,2.35
2022-09-23T13:15:31.145Z,2.73
2022-09-23T13:18:18.383Z,3.73
2022-09-23T13:20:49.554Z,2.49
2022-09-23T13:23:22.693Z,1.81
2022-09-23T13:25:54.515Z,2.27
2022-09-23T13:28:34.359Z,2.19
2022-09-23T13:31:06.763Z,2.05
2022-09-23T13:33:40.150Z,2.60
2022-09-23T13:36:14.489Z,2.74
2022-09-23T13:38:46.670Z,2.25
2022-09-23T13:41:19.702Z,2.43
2022-09-23T13:43:53.034Z,2.45
2022-09-23T13:46:25.325Z,1.73
2022-09-23T13:48:56.524Z,2.02
2022-09-23T13:51:30.212Z,2.39
2022-09-23T13:54:01.735Z,2.80
2022-09-23T13:56:33.101Z,2.72
2022-09-23T13:59:21.356Z,2.52
2022-09-23T14:01:51.705Z,2.41
2022-09-23T14:04:27.654Z,1.78
2022-09-23T14:06:58.285Z,2.21
2022-09-23T14:09:30.258Z,2.04
2022-09-23T14:12:02.514Z,1.67
2022-09-23T14:14:36.495Z,2.16
2022-09-23T14:17:08.923Z,2.18
2022-09-23T14:19:38.996Z,1.94
2022-09-23T14:22:23.489Z,1.93
2022-09-23T14:24:55.488Z,2.11
2022-09-23T14:27:29.177Z,1.56
2022-09-23T14:30:00.328Z,2.34
2022-09-23T14:32:31.115Z,2.05
2022-09-23T14:35:17.242Z,2.27
2022-09-23T14:38:07.379Z,2.17
2022-09-23T14:40:39.547Z,1.86
2022-09-23T14:43:22.041Z,1.87
2022-09-23T14:45:54.945Z,1.99
2022-09-23T14:48:27.627Z,3.79
2022-09-23T14:50:59.235Z,3.37
2022-09-23T14:53:36.918Z,2.53
2022-09-23T14:56:12.946Z,2.49
2022-09-23T14:58:48.224Z,2.48
2022-09-23T15:01:38.650Z,2.49
2022-09-23T15:04:14.424Z,1.78
2022-09-23T15:06:47.887Z,2.61
2022-09-23T15:09:23.635Z,2.69
2022-09-23T15:11:55.143Z,2.70
2022-09-23T15:14:37.639Z,2.53
2022-09-23T15:17:16.729Z,2.45
2022-09-23T15:19:52.694Z,2.57
2022-09-23T15:22:23.768Z,2.35
2022-09-23T15:24:55.019Z,2.68
2022-09-23T15:27:32.530Z,3.11
2022-09-23T15:30:16.031Z,3.87
2022-09-23T15:32:46.754Z,3.17
2022-09-23T15:35:18.858Z,2.77
2022-09-23T15:37:51.520Z,2.72
2022-09-23T15:40:23.888Z,3.40
2022-09-23T15:42:57.059Z,3.23
2022-09-23T15:45:34.388Z,3.73
2022-09-23T15:48:08.409Z,3.17
2022-09-23T15:50:39.525Z,2.95
2022-09-23T15:53:14.210Z,4.12
2022-09-23T15:55:44.717Z,7.88
2022-09-23T15:58:15.638Z,3.50
2022-09-23T16:00:46.406Z,3.39
2022-09-23T16:03:16.508Z,3.79
2022-09-23T16:05:49.339Z,3.23
2022-09-23T16:08:19.699Z,3.71
2022-09-23T16:10:50.193Z,3.62
2022-09-23T16:13:20.403Z,4.06
2022-09-23T16:15:50.480Z,5.61
2022-09-23T16:18:20.453Z,4.71
2022-09-23T16:20:51.157Z,4.21
2022-09-23T16:23:35.485Z,5.67
2022-09-23T16:26:08.410Z,8.67
2022-09-23T16:28:38.640Z,13.78
2022-09-23T16:31:09.424Z,8.15
2022-09-23T16:33:39.966Z,7.55
2022-09-23T16:36:16.753Z,6.66
2022-09-23T16:38:47.382Z,7.04
2022-09-23T16:41:17.466Z,7.01
2022-09-23T16:43:49.121Z,7.05
2022-09-23T16:46:19.759Z,8.29
2022-09-23T16:48:52.646Z,9.18
2022-09-23T16:51:24.475Z,9.16
2022-09-23T16:53:55.493Z,10.38
2022-09-23T16:56:28.928Z,9.93
2022-09-23T16:58:59.390Z,9.66
2022-09-23T17:01:48.008Z,10.11
2022-09-23T17:04:19.530Z,9.82
2022-09-23T17:06:50.630Z,9.48
2022-09-23T17:09:22.164Z,9.89
2022-09-23T17:11:56.375Z,11.09
2022-09-23T17:14:26.725Z,9.63
2022-09-23T17:16:58.620Z,9.89
2022-09-23T17:19:28.742Z,11.04
2022-09-23T17:21:58.806Z,11.07
2022-09-23T17:24:28.834Z,12.86
2022-09-23T17:26:58.927Z,24.79
2022-09-23T17:29:29.175Z,31.26
2022-09-23T17:31:59.366Z,19.21
2022-09-23T17:34:29.911Z,14.09
2022-09-23T17:37:00.001Z,12.97
2022-09-23T17:39:31.183Z,15.60
2022-09-23T17:42:01.823Z,16.14
2022-09-23T17:44:32.472Z,15.72
2022-09-23T17:47:02.564Z,16.30
2022-09-23T17:49:35.355Z,14.89
2022-09-23T17:52:06.008Z,13.98
2022-09-23T17:54:36.417Z,12.00
2022-09-23T17:57:06.700Z,12.59
2022-09-23T17:59:36.786Z,14.78
2022-09-23T18:02:06.866Z,13.68
2022-09-23T18:04:36.972Z,12.66
2022-09-23T18:07:07.009Z,11.16
2022-09-23T18:09:37.054Z,11.19
2022-09-23T18:12:07.092Z,11.96
2022-09-23T18:14:37.166Z,11.63
2022-09-23T18:17:07.487Z,12.19
2022-09-23T18:19:37.589Z,11.91
2022-09-23T18:22:07.711Z,12.40
2022-09-23T18:24:41.078Z,12.27
2022-09-23T18:27:11.100Z,12.82
2022-09-23T18:29:41.118Z,13.11
2022-09-23T18:32:14.233Z,13.05
2022-09-23T18:34:44.658Z,12.67
2022-09-23T18:37:15.959Z,12.99
2022-09-23T18:39:46.413Z,12.58
2022-09-23T18:42:16.494Z,12.81
2022-09-23T18:44:47.181Z,13.25
2022-09-23T18:47:37.390Z,12.38
2022-09-23T18:50:25.544Z,11.47
2022-09-23T18:52:58.628Z,10.43
2022-09-23T18:55:28.659Z,10.78
2022-09-23T18:57:59.805Z,10.90
2022-09-23T19:00:30.095Z,10.22
2022-09-23T19:03:00.553Z,9.00
2022-09-23T19:05:30.647Z,8.15
2022-09-23T19:08:00.746Z,9.46
2022-09-23T19:10:31.024Z,10.80
2022-09-23T19:13:01.166Z,9.87
2022-09-23T19:15:31.132Z,10.14
2022-09-23T19:18:01.211Z,10.24
2022-09-23T19:20:31.274Z,10.04
2022-09-23T19:23:01.334Z,11.77
2022-09-23T19:25:31.492Z,11.97
2022-09-23T19:28:02.620Z,11.30
2022-09-23T19:30:32.636Z,18.52
2022-09-23T19:33:02.956Z,26.03
2022-09-23T19:35:33.419Z,12.83
2022-09-23T19:38:04.528Z,13.57
2022-09-23T19:40:37.271Z,12.14
2022-09-23T19:43:08.221Z,13.78
2022-09-23T19:45:38.648Z,16.87
2022-09-23T19:48:09.679Z,13.88
2022-09-23T19:50:41.551Z,12.85
2022-09-23T19:53:12.852Z,13.33
2022-09-23T19:55:44.361Z,13.92
2022-09-23T19:58:14.851Z,13.02
2022-09-23T20:00:44.919Z,13.38
2022-09-23T20:03:15.553Z,13.46
2022-09-23T20:05:45.590Z,13.85
2022-09-23T20:08:15.628Z,13.15
2022-09-23T20:10:50.025Z,13.09
2022-09-23T20:13:20.304Z,15.09
2022-09-23T20:15:50.619Z,13.81
2022-09-23T20:18:20.641Z,13.78
2022-09-23T20:20:56.039Z,13.19
2022-09-23T20:23:26.047Z,13.27
2022-09-23T20:26:15.428Z,12.74
2022-09-23T20:28:45.873Z,13.82
2022-09-23T20:31:17.400Z,15.26
2022-09-23T20:33:50.783Z,14.40
2022-09-23T20:36:21.647Z,14.03
2022-09-23T20:38:55.140Z,14.28
2022-09-23T20:41:25.154Z,14.16
2022-09-23T20:43:55.417Z,14.35
2022-09-23T20:46:25.840Z,15.19
2022-09-23T20:48:56.244Z,15.31
2022-09-23T20:51:26.348Z,16.95
2022-09-23T20:53:56.454Z,18.70
2022-09-23T20:56:27.538Z,18.64
2022-09-23T20:58:59.968Z,18.06
2022-09-23T21:01:30.387Z,18.10
2022-09-23T21:04:00.773Z,18.50
2022-09-23T21:06:31.121Z,20.14
2022-09-23T21:09:01.788Z,21.87
2022-09-23T21:11:32.201Z,16.71
2022-09-23T21:14:02.590Z,17.33
2022-09-23T21:16:33.000Z,15.42
2022-09-23T21:19:04.071Z,15.30
2022-09-23T21:21:34.182Z,14.79
2022-09-23T21:24:33.040Z,15.21
2022-09-23T21:26:55.115Z,15.00
2022-09-23T21:29:25.461Z,14.37
2022-09-23T21:31:55.514Z,14.64
2022-09-23T21:34:28.316Z,14.80
2022-09-23T21:36:58.369Z,19.95
2022-09-23T21:39:28.413Z,19.37
2022-09-23T21:41:58.657Z,17.65
2022-09-23T21:44:28.726Z,16.98
2022-09-23T21:46:59.378Z,16.78
2022-09-23T21:49:32.630Z,16.71
2022-09-23T21:52:02.859Z,19.39
2022-09-23T21:54:32.856Z,20.21
2022-09-23T21:57:03.425Z,19.70
2022-09-23T21:59:34.247Z,20.40
2022-09-23T22:02:11.629Z,20.65
2022-09-23T22:04:41.679Z,19.27
2022-09-23T22:07:11.752Z,17.44
2022-09-23T22:09:41.928Z,18.91
2022-09-23T22:12:12.971Z,20.11
2022-09-23T22:14:43.442Z,20.30
2022-09-23T22:17:14.606Z,19.81
2022-09-23T22:19:47.468Z,18.34
2022-09-23T22:22:19.256Z,18.12
2022-09-23T22:24:50.069Z,17.73
2022-09-23T22:27:20.543Z,18.11
2022-09-23T22:30:08.361Z,16.79
2022-09-23T22:32:50.458Z,16.69
2022-09-23T22:35:26.849Z,15.78
2022-09-23T22:37:56.827Z,15.20
2022-09-23T22:40:26.852Z,16.08
2022-09-23T22:42:57.653Z,17.93
2022-09-23T22:45:27.663Z,20.53
2022-09-23T22:47:57.731Z,19.86
2022-09-23T22:50:28.413Z,18.88
2022-09-23T22:52:59.684Z,19.36
2022-09-23T22:55:29.982Z,20.30
2022-09-23T22:58:10.598Z,21.00
2022-09-23T23:00:56.004Z,21.99
2022-09-23T23:03:27.609Z,21.67
2022-09-23T23:06:00.875Z,22.46
2022-09-23T23:08:31.567Z,23.25
2022-09-23T23:11:05.451Z,23.48
2022-09-23T23:13:35.576Z,23.05
2022-09-23T23:16:07.116Z,23.83
2022-09-23T23:18:40.118Z,25.50
2022-09-23T23:21:12.458Z,25.01
2022-09-23T23:23:43.542Z,25.64
2022-09-23T23:26:15.604Z,26.02
2022-09-23T23:28:45.757Z,27.12
2022-09-23T23:31:17.931Z,26.37
2022-09-23T23:33:48.312Z,26.42
2022-09-23T23:36:20.681Z,26.92
2022-09-23T23:38:52.284Z,25.91
2022-09-23T23:41:23.672Z,25.98
2022-09-23T23:43:57.400Z,26.00
2022-09-23T23:46:29.114Z,25.78
2022-09-23T23:49:00.229Z,25.73
2022-09-23T23:51:30.383Z,26.59
2022-09-23T23:54:00.595Z,26.32
2022-09-23T23:56:31.923Z,26.60
2022-09-23T23:59:03.543Z,26.19
